Time;durP1;ratioP1;P1;durP2;ratioP2;P2;SDS_P1;SDS_P2;PMS_P1;PMS_P2;Temp;Humidity;BMP_temperature;BMP_pressure;BME280_temperature;BME280_humidity;BME280_pressure;Samples;Min_cycle;Max_cycle;Signal;HPM_P1;HPM_P2
2023/04/30 00:01:44;;;;;;;21.67;17.43;;;10.00;99.90;;;;;;5033483;28;20172;-68
2023/04/30 00:04:09;;;;;;;23.00;17.10;;;10.00;99.90;;;;;;5033361;28;20227;-68
2023/04/30 00:06:35;;;;;;;20.00;16.63;;;10.00;99.90;;;;;;5033176;28;20166;-68
2023/04/30 00:09:00;;;;;;;21.47;17.13;;;9.90;99.90;;;;;;5033318;28;20188;-69
2023/04/30 00:11:26;;;;;;;21.57;15.73;;;10.00;99.90;;;;;;5032993;28;20170;-68
2023/04/30 00:13:52;;;;;;;19.93;15.03;;;10.00;99.90;;;;;;5033353;28;20174;-68
2023/04/30 00:16:18;;;;;;;23.23;15.63;;;10.00;99.90;;;;;;5033189;28;20174;-68
2023/04/30 00:18:44;;;;;;;20.43;14.47;;;10.00;99.90;;;;;;5050936;28;20246;-68
2023/04/30 00:21:10;;;;;;;19.50;13.97;;;10.00;99.90;;;;;;5035155;28;20177;-68
2023/04/30 00:23:35;;;;;;;19.57;14.37;;;10.00;99.90;;;;;;5052982;28;20193;-68
2023/04/30 00:26:01;;;;;;;15.63;13.67;;;10.00;99.00;;;;;;5052774;28;20165;-68
2023/04/30 00:28:27;;;;;;;16.77;12.87;;;9.90;96.80;;;;;;5053085;28;20173;-67
2023/04/30 00:30:52;;;;;;;14.90;12.73;;;9.80;96.00;;;;;;5053137;28;20172;-67
2023/04/30 00:33:18;;;;;;;15.73;12.40;;;9.80;96.50;;;;;;5053030;28;20256;-69
2023/04/30 00:35:44;;;;;;;13.77;11.77;;;9.70;96.30;;;;;;5053005;28;20678;-70
2023/04/30 00:38:09;;;;;;;16.67;12.87;;;9.70;94.20;;;;;;5052778;28;20233;-69
2023/04/30 00:40:37;;;;;;;15.70;12.10;;;9.60;95.30;;;;;;5052798;28;20625;-69
2023/04/30 00:43:03;;;;;;;16.17;12.10;;;9.60;94.60;;;;;;5052837;28;20219;-70
2023/04/30 00:45:28;;;;;;;16.53;12.77;;;9.50;95.60;;;;;;5052864;28;20173;-69
2023/04/30 00:47:54;;;;;;;15.77;12.13;;;9.50;94.60;;;;;;5052823;28;20567;-69
2023/04/30 00:50:21;;;;;;;15.60;11.80;;;9.50;96.10;;;;;;5052817;28;20212;-68
2023/04/30 00:52:46;;;;;;;16.63;11.63;;;9.50;95.80;;;;;;5052958;28;20253;-69
2023/04/30 00:55:13;;;;;;;15.77;11.53;;;9.50;94.30;;;;;;5052498;28;20748;-69
2023/04/30 00:57:42;;;;;;;13.47;11.30;;;9.50;93.70;;;;;;5055499;28;20252;-68
2023/04/30 01:00:10;;;;;;;13.37;11.07;;;9.50;95.20;;;;;;5056642;28;20219;-68
2023/04/30 01:02:36;;;;;;;12.27;10.97;;;9.40;95.30;;;;;;5056550;28;20204;-67
2023/04/30 01:05:03;;;;;;;13.37;11.07;;;9.40;96.60;;;;;;5056716;28;20169;-67
2023/04/30 01:07:30;;;;;;;12.50;10.77;;;9.40;97.70;;;;;;5056340;28;20166;-67
2023/04/30 01:09:55;;;;;;;14.13;11.63;;;9.30;97.60;;;;;;5056128;28;20166;-68
2023/04/30 01:12:35;;;;;;;14.90;11.90;;;9.30;97.20;;;;;;5056514;28;20235;-67
2023/04/30 01:15:10;;;;;;;13.33;11.30;;;9.30;98.00;;;;;;5056433;28;20284;-66
2023/04/30 01:17:45;;;;;;;15.30;11.23;;;9.20;97.50;;;;;;5051467;28;20618;-67
2023/04/30 01:20:11;;;;;;;16.17;11.73;;;9.30;98.50;;;;;;5036479;28;20221;-66
2023/04/30 01:23:15;;;;;;;16.37;11.90;;;9.30;98.70;;;;;;5036264;28;20260;-66
2023/04/30 01:26:08;;;;;;;15.03;12.47;;;9.20;98.40;;;;;;5035938;28;20166;-68
2023/04/30 01:28:37;;;;;;;15.13;12.37;;;9.20;99.90;;;;;;5051552;28;20174;-67
2023/04/30 01:31:02;;;;;;;15.40;12.13;;;9.10;99.90;;;;;;5036171;28;20668;-67
2023/04/30 01:33:28;;;;;;;17.10;12.30;;;9.10;99.90;;;;;;5036219;28;20171;-68
2023/04/30 01:36:12;;;;;;;14.23;11.70;;;9.10;99.90;;;;;;5051326;28;20221;-68
2023/04/30 01:39:04;;;;;;;16.93;12.93;;;9.10;99.90;;;;;;5035567;28;20268;-68
2023/04/30 01:41:38;;;;;;;16.20;12.23;;;9.10;99.90;;;;;;5035956;28;20243;-68
2023/04/30 01:44:41;;;;;;;17.23;12.33;;;9.00;99.90;;;;;;5035962;28;20248;-67
2023/04/30 01:47:11;;;;;;;14.83;12.17;;;9.00;99.90;;;;;;5036074;28;20169;-67
2023/04/30 01:49:51;;;;;;;19.03;12.80;;;9.00;99.90;;;;;;5035770;28;20209;-67
2023/04/30 01:52:24;;;;;;;18.53;12.00;;;8.90;99.90;;;;;;5035777;28;20174;-68
2023/04/30 01:55:02;;;;;;;17.60;12.17;;;8.80;99.90;;;;;;5035701;28;20296;-68
2023/04/30 01:57:33;;;;;;;16.40;12.83;;;8.80;99.90;;;;;;5035515;28;20582;-68
2023/04/30 01:59:59;;;;;;;13.40;11.93;;;8.80;99.90;;;;;;5035726;28;20169;-67
2023/04/30 02:02:25;;;;;;;17.80;12.53;;;8.90;99.90;;;;;;5035574;28;20174;-67
2023/04/30 02:04:50;;;;;;;16.83;11.70;;;8.80;99.90;;;;;;5035246;28;20189;-68
2023/04/30 02:07:47;;;;;;;16.60;12.60;;;8.70;99.90;;;;;;5034657;28;20166;-67
2023/04/30 02:10:15;;;;;;;16.87;12.10;;;8.70;99.90;;;;;;5033529;28;20553;-67
2023/04/30 02:12:40;;;;;;;15.43;11.70;;;8.60;99.90;;;;;;5035342;28;20717;-67
2023/04/30 02:15:07;;;;;;;18.23;11.77;;;8.60;99.90;;;;;;5035226;28;20284;-67
2023/04/30 02:17:33;;;;;;;14.67;11.50;;;8.60;99.90;;;;;;5042966;28;20217;-68
2023/04/30 02:19:59;;;;;;;12.53;10.93;;;8.60;99.90;;;;;;5055313;28;20176;-68
2023/04/30 02:22:25;;;;;;;13.70;11.77;;;8.60;99.90;;;;;;5054645;28;20239;-68
2023/04/30 02:24:52;;;;;;;14.07;11.70;;;8.60;99.90;;;;;;5054874;28;20660;-67
2023/04/30 02:27:19;;;;;;;13.37;10.80;;;8.60;99.90;;;;;;5055077;28;20227;-67
2023/04/30 02:29:44;;;;;;;15.53;10.97;;;8.50;99.90;;;;;;5054853;28;20180;-67
2023/04/30 02:32:10;;;;;;;13.07;11.30;;;8.50;99.90;;;;;;5037435;28;20174;-66
2023/04/30 02:34:35;;;;;;;16.00;11.83;;;8.50;99.90;;;;;;5054962;28;20233;-69
2023/04/30 02:37:02;;;;;;;13.77;11.27;;;8.50;99.90;;;;;;5054326;28;20195;-68
2023/04/30 02:39:27;;;;;;;16.90;12.03;;;8.50;99.90;;;;;;5036955;28;20260;-68
2023/04/30 02:41:53;;;;;;;18.33;11.37;;;8.40;99.90;;;;;;5054851;28;20264;-68
2023/04/30 02:44:18;;;;;;;14.33;11.23;;;8.40;99.90;;;;;;5054627;28;20165;-68
2023/04/30 02:46:44;;;;;;;12.80;11.20;;;8.40;99.90;;;;;;5054634;28;20176;-68
2023/04/30 02:49:10;;;;;;;15.10;10.80;;;8.40;99.90;;;;;;5054679;28;20173;-67
2023/04/30 02:51:35;;;;;;;12.10;9.57;;;8.40;99.90;;;;;;5053758;28;20181;-67
2023/04/30 02:54:01;;;;;;;15.53;10.90;;;8.30;99.90;;;;;;5054525;28;20528;-68
2023/04/30 02:56:27;;;;;;;11.50;10.03;;;8.30;99.90;;;;;;5054388;28;20256;-68
2023/04/30 02:58:53;;;;;;;13.53;9.87;;;8.30;99.90;;;;;;5054574;28;20274;-67
2023/04/30 03:01:19;;;;;;;12.73;10.20;;;8.20;99.90;;;;;;5054553;28;20209;-66
2023/04/30 03:03:44;;;;;;;13.10;9.80;;;8.20;99.90;;;;;;5053030;28;20215;-66
2023/04/30 03:06:10;;;;;;;13.30;10.03;;;8.20;99.90;;;;;;5053621;28;20173;-67
2023/04/30 03:08:36;;;;;;;14.23;10.97;;;8.20;99.90;;;;;;5054126;28;20212;-66
2023/04/30 03:11:01;;;;;;;13.03;9.83;;;8.20;99.90;;;;;;5054144;28;20173;-66
2023/04/30 03:13:27;;;;;;;12.47;9.50;;;8.10;99.90;;;;;;5053666;28;20625;-66
2023/04/30 03:16:00;;;;;;;12.27;9.50;;;8.20;99.90;;;;;;5054020;28;20209;-67
2023/04/30 03:18:27;;;;;;;15.70;10.07;;;8.10;99.90;;;;;;5053330;28;20221;-67
2023/04/30 03:20:52;;;;;;;14.20;10.47;;;8.10;99.90;;;;;;5052963;28;20185;-67
2023/04/30 03:23:18;;;;;;;13.40;10.40;;;8.10;99.90;;;;;;5053673;28;20250;-67
2023/04/30 03:25:44;;;;;;;11.67;9.93;;;8.00;99.90;;;;;;5053912;28;20219;-67
2023/04/30 03:28:09;;;;;;;12.97;10.30;;;8.10;99.90;;;;;;5053611;28;20173;-67
2023/04/30 03:30:35;;;;;;;16.17;10.67;;;8.00;99.90;;;;;;5053587;28;20212;-67
2023/04/30 03:33:00;;;;;;;13.50;10.20;;;8.00;99.90;;;;;;5053676;28;20197;-67
2023/04/30 03:35:26;;;;;;;14.30;10.33;;;8.00;99.90;;;;;;5053025;28;20596;-66
2023/04/30 03:37:52;;;;;;;12.17;10.13;;;8.00;99.90;;;;;;5053503;28;20633;-68
2023/04/30 03:40:17;;;;;;;12.87;10.30;;;8.00;99.90;;;;;;5053699;28;20177;-67
2023/04/30 03:42:43;;;;;;;11.20;9.83;;;7.90;99.90;;;;;;5053326;28;20253;-66
2023/04/30 03:45:09;;;;;;;12.53;10.23;;;7.90;99.90;;;;;;5053269;28;20184;-66
2023/04/30 03:47:35;;;;;;;14.80;10.53;;;7.90;99.90;;;;;;5053410;28;20180;-68
2023/04/30 03:50:02;;;;;;;14.73;11.07;;;7.80;99.90;;;;;;5052932;28;20192;-68
2023/04/30 03:52:29;;;;;;;15.27;10.90;;;7.80;99.90;;;;;;5053401;28;20196;-68
2023/04/30 03:54:54;;;;;;;13.53;10.77;;;7.80;99.90;;;;;;5052974;28;20216;-68
2023/04/30 03:57:20;;;;;;;14.70;11.17;;;7.80;99.90;;;;;;5053376;28;20169;-67
2023/04/30 03:59:46;;;;;;;14.73;11.30;;;7.80;99.90;;;;;;5053112;28;20698;-67
2023/04/30 04:02:12;;;;;;;17.47;10.77;;;7.80;99.90;;;;;;5053260;28;20169;-67
2023/04/30 04:04:38;;;;;;;13.23;10.67;;;7.80;99.90;;;;;;5052247;28;20219;-67
2023/04/30 04:07:06;;;;;;;15.30;10.90;;;7.70;99.90;;;;;;5053079;28;20652;-68
2023/04/30 04:09:32;;;;;;;13.03;11.03;;;7.60;99.90;;;;;;5052845;28;20162;-67
2023/04/30 04:11:57;;;;;;;15.87;10.50;;;7.70;99.90;;;;;;5052455;28;20513;-68
2023/04/30 04:14:23;;;;;;;15.40;11.07;;;7.60;99.90;;;;;;5052913;28;20224;-68
2023/04/30 04:16:49;;;;;;;13.43;10.40;;;7.60;99.90;;;;;;5052584;28;20169;-68
2023/04/30 04:19:14;;;;;;;14.87;11.20;;;7.60;99.90;;;;;;5052534;28;20169;-68
2023/04/30 04:21:40;;;;;;;16.03;11.30;;;7.60;99.90;;;;;;5052802;28;20173;-66
2023/04/30 04:24:07;;;;;;;16.33;11.50;;;7.60;99.90;;;;;;5051639;28;20552;-68
2023/04/30 04:26:36;;;;;;;13.23;11.17;;;7.60;99.90;;;;;;5052444;28;20310;-68
2023/04/30 04:29:03;;;;;;;13.17;10.87;;;7.70;99.90;;;;;;5053378;28;20256;-68
2023/04/30 04:31:30;;;;;;;13.83;10.90;;;7.60;99.90;;;;;;5054312;28;20199;-68
2023/04/30 04:33:58;;;;;;;17.63;10.57;;;7.70;99.90;;;;;;5056505;28;20260;-66
2023/04/30 04:36:27;;;;;;;14.53;11.13;;;7.80;99.90;;;;;;5056696;28;20176;-67
2023/04/30 04:39:00;;;;;;;14.50;10.80;;;8.00;99.90;;;;;;5038966;28;20173;-67
2023/04/30 04:41:32;;;;;;;15.63;11.40;;;8.30;99.90;;;;;;5056766;28;20193;-68
2023/04/30 04:44:02;;;;;;;12.83;10.20;;;8.60;99.90;;;;;;5056604;28;20707;-67
2023/04/30 04:46:28;;;;;;;13.27;11.27;;;9.30;99.90;;;;;;5056465;28;20174;-67
2023/04/30 04:48:54;;;;;;;12.77;10.53;;;9.60;99.90;;;;;;5056351;28;20165;-67
2023/04/30 04:51:20;;;;;;;13.50;9.67;;;10.00;75.20;;;;;;5056553;28;20215;-67
2023/04/30 04:53:46;;;;;;;14.77;10.27;;;10.50;63.70;;;;;;5056704;28;20569;-67
2023/04/30 04:56:11;;;;;;;12.47;9.90;;;10.70;47.60;;;;;;5056245;28;20299;-67
2023/04/30 04:58:37;;;;;;;13.13;9.77;;;11.20;29.80;;;;;;5055858;28;20184;-67
2023/04/30 05:01:04;;;;;;;13.93;10.00;;;11.20;18.10;;;;;;5056342;28;20204;-66
2023/04/30 05:03:31;;;;;;;11.33;9.70;;;11.00;22.10;;;;;;5056507;28;20567;-65
2023/04/30 05:05:57;;;;;;;11.90;9.73;;;11.10;26.70;;;;;;5056563;28;20256;-67
2023/04/30 05:08:23;;;;;;;13.37;9.53;;;11.40;9.60;;;;;;5056166;28;20177;-68
2023/04/30 05:10:48;;;;;;;14.77;9.77;;;11.30;12.40;;;;;;5055929;28;20177;-67
2023/04/30 05:13:14;;;;;;;10.17;9.17;;;11.50;15.30;;;;;;5055819;28;20174;-66
2023/04/30 05:15:39;;;;;;;11.43;9.57;;;12.30;1.00;;;;;;5055682;28;20656;-68
2023/04/30 05:18:05;;;;;;;12.27;10.00;;;12.80;1.00;;;;;;5055784;28;20229;-68
2023/04/30 05:20:30;;;;;;;12.00;9.70;;;13.10;1.00;;;;;;5056124;28;20505;-68
2023/04/30 05:22:56;;;;;;;13.07;10.20;;;13.60;1.00;;;;;;5055984;28;20169;-66
2023/04/30 05:25:22;;;;;;;11.23;9.93;;;13.80;1.00;;;;;;5055781;28;20181;-66
2023/04/30 05:27:47;;;;;;;11.63;10.10;;;14.40;1.00;;;;;;5055316;28;20180;-66
2023/04/30 05:30:14;;;;;;;12.00;9.50;;;15.00;1.00;;;;;;5037722;28;20173;-66
2023/04/30 05:32:40;;;;;;;12.77;10.30;;;15.20;1.00;;;;;;5055879;28;20161;-68
2023/04/30 05:35:06;;;;;;;11.37;9.90;;;15.40;1.00;;;;;;5055722;28;20215;-68
2023/04/30 05:37:32;;;;;;;14.37;10.50;;;16.50;1.00;;;;;;5055745;28;20169;-68
2023/04/30 05:39:58;;;;;;;11.43;10.10;;;16.30;99.90;;;;;;5055579;28;20181;-68
2023/04/30 05:42:23;;;;;;;10.77;9.57;;;16.60;99.90;;;;;;5054683;28;20185;-68
2023/04/30 05:44:49;;;;;;;10.65;9.57;;;17.60;1.00;;;;;;5055014;28;20324;-68
2023/04/30 05:47:15;;;;;;;10.45;9.45;;;17.50;25.20;;;;;;5037565;28;20177;-68
2023/04/30 05:49:40;;;;;;;10.75;9.30;;;18.10;99.90;;;;;;5055274;28;20252;-68
2023/04/30 05:52:06;;;;;;;10.93;9.68;;;19.00;1.00;;;;;;5052604;28;20565;-68
2023/04/30 05:54:32;;;;;;;12.23;10.90;;;19.80;1.00;;;;;;5054876;28;20197;-69
2023/04/30 05:56:57;;;;;;;11.52;10.27;;;18.90;99.90;;;;;;5054911;28;20633;-69
2023/04/30 05:59:23;;;;;;;12.52;11.00;;;17.80;1.00;;;;;;5055082;28;20209;-68
2023/04/30 06:01:49;;;;;;;11.80;10.60;;;17.60;99.00;;;;;;5055621;28;20520;-69
2023/04/30 06:04:14;;;;;;;12.85;11.55;;;18.60;1.00;;;;;;5037284;28;20675;-68
2023/04/30 06:06:40;;;;;;;13.80;11.32;;;18.60;1.00;;;;;;5054987;28;20696;-69
2023/04/30 06:09:06;;;;;;;14.88;11.52;;;19.20;99.90;;;;;;5055445;28;20560;-70
2023/04/30 06:11:31;;;;;;;13.18;11.85;;;19.00;99.90;;;;;;5054796;28;20529;-70
2023/04/30 06:13:57;;;;;;;14.32;12.82;;;19.10;99.90;;;;;;5054545;28;20257;-70
2023/04/30 06:16:23;;;;;;;13.35;12.15;;;19.70;1.00;;;;;;5055077;28;20181;-69
2023/04/30 06:18:48;;;;;;;13.32;12.02;;;20.10;1.00;;;;;;5054589;28;20217;-69
2023/04/30 06:21:14;;;;;;;13.55;12.00;;;19.70;1.00;;;;;;5054839;28;20165;-70
2023/04/30 06:23:40;;;;;;;13.35;12.05;;;18.10;1.00;;;;;;5054766;28;20656;-70
2023/04/30 06:26:06;;;;;;;15.38;13.68;;;19.10;99.90;;;;;;5054809;28;20169;-71
2023/04/30 06:28:31;;;;;;;14.75;13.25;;;17.90;1.00;;;;;;5054515;28;20252;-69
2023/04/30 06:30:57;;;;;;;16.33;13.75;;;18.90;99.90;;;;;;5054680;28;20590;-70
2023/04/30 06:33:23;;;;;;;17.58;14.35;;;20.30;99.90;;;;;;5055105;28;20169;-70
2023/04/30 06:35:54;;;;;;;15.80;14.15;;;19.60;99.90;;;;;;5054288;28;20236;-70
2023/04/30 06:38:19;;;;;;;15.95;13.85;;;19.30;1.00;;;;;;5036803;28;20169;-70
2023/04/30 06:40:45;;;;;;;14.55;13.15;;;19.50;1.00;;;;;;5054471;28;20182;-71
2023/04/30 06:43:11;;;;;;;15.15;13.57;;;20.20;1.00;;;;;;5053790;28;20470;-70
2023/04/30 06:45:37;;;;;;;19.52;15.73;;;18.70;99.90;;;;;;5054322;28;20218;-70
2023/04/30 06:48:03;;;;;;;15.75;14.15;;;18.90;99.90;;;;;;5054628;28;20303;-71
2023/04/30 06:50:28;;;;;;;16.58;14.45;;;18.90;1.00;;;;;;5054141;28;20223;-71
2023/04/30 06:52:54;;;;;;;15.75;14.07;;;19.90;99.90;;;;;;5054038;28;20173;-70
2023/04/30 06:55:20;;;;;;;16.30;14.65;;;20.30;99.90;;;;;;5034738;28;20671;-70
2023/04/30 06:57:46;;;;;;;17.10;14.60;;;21.60;1.00;;;;;;5035784;28;20522;-70
2023/04/30 07:00:14;;;;;;;15.80;14.05;;;22.50;1.00;;;;;;5054398;28;20204;-70
2023/04/30 07:02:40;;;;;;;16.85;15.27;;;22.70;1.00;;;;;;5054270;28;20213;-70
2023/04/30 07:05:05;;;;;;;16.45;14.85;;;23.30;1.00;;;;;;5053935;28;20644;-71
2023/04/30 07:07:31;;;;;;;17.13;15.43;;;23.40;1.00;;;;;;5053703;28;20173;-71
2023/04/30 07:09:57;;;;;;;16.90;15.20;;;22.40;1.00;;;;;;5054022;28;20169;-70
2023/04/30 07:12:23;;;;;;;18.30;16.17;;;21.30;99.90;;;;;;5053189;28;20174;-71
2023/04/30 07:14:48;;;;;;;20.50;15.82;;;19.40;1.00;;;;;;5053701;28;20212;-70
2023/04/30 07:17:14;;;;;;;17.92;15.90;;;19.50;1.00;;;;;;5032296;28;20665;-70
2023/04/30 07:19:40;;;;;;;19.75;17.35;;;20.10;56.10;;;;;;5048965;28;20174;-70
2023/04/30 07:22:06;;;;;;;19.85;17.80;;;19.90;99.90;;;;;;5032784;28;20523;-70
2023/04/30 07:24:31;;;;;;;19.65;17.65;;;20.40;1.00;;;;;;5033428;28;20190;-70
2023/04/30 07:27:01;;;;;;;19.92;17.88;;;20.30;38.30;;;;;;5032994;28;20644;-71
2023/04/30 07:29:28;;;;;;;21.08;18.15;;;20.00;1.00;;;;;;5033719;28;20162;-70
2023/04/30 07:31:54;;;;;;;16.40;14.80;;;19.20;1.00;;;;;;5033673;28;20224;-70
2023/04/30 07:34:19;;;;;;;20.63;18.48;;;20.60;99.90;;;;;;5032548;28;20210;-70
2023/04/30 07:36:47;;;;;;;15.75;14.23;;;21.10;99.90;;;;;;5033583;28;20177;-71
2023/04/30 07:39:13;;;;;;;16.95;14.27;;;22.00;1.00;;;;;;5033247;28;20737;-70
2023/04/30 07:41:38;;;;;;;16.02;14.43;;;22.30;99.90;;;;;;5048014;28;20186;-71
2023/04/30 07:44:04;;;;;;;17.50;14.68;;;22.40;99.90;;;;;;5033318;28;20625;-71
2023/04/30 07:46:30;;;;;;;16.50;14.88;;;22.50;99.90;;;;;;5033003;28;20598;-70
2023/04/30 07:48:55;;;;;;;17.17;15.38;;;23.50;1.00;;;;;;5031723;28;20166;-72
2023/04/30 07:51:21;;;;;;;16.75;15.05;;;24.20;1.00;;;;;;5031847;28;20201;-70
2023/04/30 07:53:47;;;;;;;16.83;15.07;;;23.80;1.00;;;;;;5033415;28;20168;-70
2023/04/30 07:56:12;;;;;;;17.70;15.38;;;24.00;1.00;;;;;;5032463;28;20209;-72
2023/04/30 07:58:38;;;;;;;16.75;14.77;;;24.90;1.00;;;;;;5032649;28;20201;-72
2023/04/30 08:01:03;;;;;;;15.52;14.02;;;25.30;1.00;;;;;;5032558;28;20690;-72
2023/04/30 08:03:29;;;;;;;16.25;14.85;;;25.30;99.90;;;;;;5032725;28;20228;-70
2023/04/30 08:05:55;;;;;;;16.45;14.93;;;25.90;99.90;;;;;;5047894;28;20170;-72
2023/04/30 08:08:20;;;;;;;16.83;15.13;;;25.30;99.90;;;;;;5033088;28;20260;-71
2023/04/30 08:10:46;;;;;;;17.42;15.60;;;24.60;1.00;;;;;;5032669;28;20629;-70
2023/04/30 08:13:12;;;;;;;17.13;15.52;;;25.80;99.90;;;;;;5031125;28;20170;-71
2023/04/30 08:15:38;;;;;;;15.77;14.48;;;25.50;99.90;;;;;;5032547;28;20206;-71
2023/04/30 08:18:04;;;;;;;17.73;16.02;;;25.10;99.90;;;;;;5044199;28;20213;-71
2023/04/30 08:20:31;;;;;;;16.92;15.20;;;24.70;1.00;;;;;;5051729;28;20650;-71
2023/04/30 08:22:57;;;;;;;16.10;14.57;;;23.90;1.00;;;;;;5051990;28;20294;-71
2023/04/30 08:25:23;;;;;;;16.77;15.18;;;23.90;1.00;;;;;;5052320;28;20263;-71
2023/04/30 08:27:48;;;;;;;17.35;15.75;;;23.50;1.00;;;;;;5052524;28;20251;-71
2023/04/30 08:30:14;;;;;;;15.98;14.52;;;23.40;1.00;;;;;;5051169;28;20173;-72
2023/04/30 08:32:40;;;;;;;16.40;14.70;;;24.30;1.00;;;;;;5052880;28;20173;-71
2023/04/30 08:35:06;;;;;;;16.20;14.65;;;24.10;1.00;;;;;;5052558;28;20239;-71
2023/04/30 08:37:32;;;;;;;17.15;15.50;;;23.60;1.00;;;;;;5052027;28;20256;-71
2023/04/30 08:39:58;;;;;;;16.90;15.10;;;23.90;1.00;;;;;;5051873;28;20248;-71
2023/04/30 08:42:25;;;;;;;16.63;14.90;;;24.70;1.00;;;;;;5052521;28;20177;-71
2023/04/30 08:44:50;;;;;;;16.23;14.63;;;24.80;1.00;;;;;;5051840;28;20211;-71
2023/04/30 08:47:17;;;;;;;15.00;13.60;;;25.70;99.90;;;;;;5052375;28;20201;-71
2023/04/30 08:49:44;;;;;;;14.57;13.27;;;26.60;99.90;;;;;;5052120;28;20227;-71
2023/04/30 08:52:10;;;;;;;15.73;13.80;;;25.90;99.90;;;;;;5052256;28;20185;-71
2023/04/30 08:54:36;;;;;;;14.93;13.38;;;24.80;99.90;;;;;;5050979;28;20656;-70
2023/04/30 08:57:02;;;;;;;14.88;13.48;;;24.90;99.90;;;;;;5052202;28;20204;-72
2023/04/30 08:59:28;;;;;;;14.25;12.93;;;24.60;1.00;;;;;;5052013;28;20573;-71
2023/04/30 09:01:54;;;;;;;14.13;12.73;;;24.90;1.00;;;;;;5052299;28;20626;-71
2023/04/30 09:04:20;;;;;;;13.98;12.65;;;25.10;99.90;;;;;;5052403;28;20171;-71
2023/04/30 09:06:45;;;;;;;14.55;13.23;;;24.00;1.00;;;;;;5051806;28;20174;-71
2023/04/30 09:09:13;;;;;;;14.35;12.82;;;23.40;1.00;;;;;;5052036;28;20532;-73
2023/04/30 09:11:39;;;;;;;13.50;12.32;;;23.30;1.00;;;;;;5052188;28;20162;-70
2023/04/30 09:14:05;;;;;;;13.55;12.18;;;23.50;1.00;;;;;;5052565;28;20169;-70
2023/04/30 09:16:44;;;;;;;15.10;12.40;;;24.10;1.00;;;;;;5051896;28;20641;-72
2023/04/30 09:19:25;;;;;;;13.27;11.95;;;22.90;1.00;;;;;;5015605;28;20190;-70
2023/04/30 09:21:51;;;;;;;12.18;11.10;;;24.00;1.00;;;;;;5015631;28;20163;-71
2023/04/30 09:24:17;;;;;;;13.57;12.25;;;22.70;1.00;;;;;;5015168;28;20289;-71
2023/04/30 09:26:45;;;;;;;13.10;11.80;;;22.30;1.00;;;;;;5016097;28;20626;-70
2023/04/30 09:29:11;;;;;;;13.85;11.30;;;21.90;99.90;;;;;;5016262;28;20530;-71
2023/04/30 09:31:38;;;;;;;10.98;9.98;;;21.80;10.20;;;;;;5015650;28;20174;-71
2023/04/30 09:34:07;;;;;;;13.13;11.68;;;21.90;10.30;;;;;;5016043;28;20246;-70
2023/04/30 09:36:33;;;;;;;13.77;12.38;;;21.20;1.00;;;;;;5015792;28;20174;-69
2023/04/30 09:39:16;;;;;;;14.20;12.70;;;21.10;1.00;;;;;;5015770;28;20513;-71
2023/04/30 09:41:41;;;;;;;14.93;13.35;;;21.90;99.90;;;;;;5015833;28;20619;-71
2023/04/30 09:44:07;;;;;;;13.32;12.07;;;22.40;99.90;;;;;;5016009;28;20177;-71
2023/04/30 09:46:37;;;;;;;13.85;12.57;;;23.50;1.00;;;;;;5015643;28;20163;-71
2023/04/30 09:49:05;;;;;;;13.35;12.15;;;23.40;1.00;;;;;;5015260;28;20681;-70
2023/04/30 09:51:30;;;;;;;11.93;10.88;;;23.10;1.00;;;;;;5015348;28;20221;-71
2023/04/30 09:53:57;;;;;;;11.48;10.30;;;22.60;1.00;;;;;;5015760;28;20553;-71
2023/04/30 09:56:25;;;;;;;12.45;11.25;;;22.30;1.00;;;;;;5015553;28;20229;-71
2023/04/30 09:58:55;;;;;;;14.25;12.85;;;23.60;1.00;;;;;;5014509;28;20257;-71
2023/04/30 10:01:25;;;;;;;12.77;11.43;;;23.70;1.00;;;;;;5015030;28;20213;-71
2023/04/30 10:03:52;;;;;;;11.73;10.52;;;24.30;99.90;;;;;;5015464;28;20171;-71
2023/04/30 10:06:19;;;;;;;11.50;10.35;;;24.10;1.00;;;;;;5014617;28;20174;-71
2023/04/30 10:08:54;;;;;;;11.73;10.25;;;24.40;99.90;;;;;;5014794;28;20621;-70
2023/04/30 10:11:22;;;;;;;11.35;10.07;;;23.40;1.00;;;;;;5014682;28;20629;-70
2023/04/30 10:13:53;;;;;;;11.00;9.90;;;23.50;99.90;;;;;;5015379;28;20178;-71
2023/04/30 10:16:25;;;;;;;10.75;9.65;;;23.30;1.00;;;;;;5014598;28;20586;-71
2023/04/30 10:18:52;;;;;;;12.27;11.00;;;23.40;1.00;;;;;;5048169;28;20221;-70
2023/04/30 10:21:22;;;;;;;10.85;9.75;;;22.70;1.00;;;;;;5034105;28;20205;-71
2023/04/30 10:23:48;;;;;;;10.68;9.65;;;22.30;1.00;;;;;;5034542;28;20268;-69
2023/04/30 10:26:15;;;;;;;10.70;9.70;;;22.00;1.00;;;;;;5034630;28;20691;-71
2023/04/30 10:28:41;;;;;;;10.38;9.38;;;22.00;1.00;;;;;;5034593;28;20158;-71
2023/04/30 10:31:11;;;;;;;10.85;9.77;;;22.60;1.00;;;;;;5034261;28;20227;-69
2023/04/30 10:33:48;;;;;;;10.93;9.80;;;22.50;1.00;;;;;;5034868;28;20178;-70
2023/04/30 10:36:23;;;;;;;10.93;9.73;;;22.20;1.00;;;;;;5049677;28;20672;-69
2023/04/30 10:38:49;;;;;;;8.43;7.72;;;22.10;1.00;;;;;;5033260;28;20169;-71
2023/04/30 10:41:14;;;;;;;8.48;7.78;;;22.70;1.00;;;;;;5034196;28;20265;-71
2023/04/30 10:43:40;;;;;;;10.30;9.35;;;24.00;99.90;;;;;;5034077;28;20708;-70
2023/04/30 10:46:07;;;;;;;10.00;9.00;;;23.20;99.90;;;;;;5034328;28;20174;-71
2023/04/30 10:48:34;;;;;;;10.38;9.25;;;23.10;1.00;;;;;;5033962;28;20166;-70
2023/04/30 10:51:00;;;;;;;9.35;8.50;;;23.00;99.90;;;;;;5031820;28;20545;-69
2023/04/30 10:53:30;;;;;;;9.05;8.25;;;24.00;99.90;;;;;;5033566;28;20162;-70
2023/04/30 10:56:07;;;;;;;8.20;7.28;;;23.70;99.90;;;;;;5034061;28;20210;-68
2023/04/30 10:58:34;;;;;;;8.20;7.30;;;21.90;99.90;;;;;;5033643;28;20220;-71
2023/04/30 11:01:05;;;;;;;7.72;6.78;;;21.50;1.00;;;;;;5032546;28;20173;-70
2023/04/30 11:03:33;;;;;;;9.18;8.18;;;20.40;1.00;;;;;;5033816;28;20197;-70
2023/04/30 11:06:02;;;;;;;9.07;8.23;;;20.30;99.90;;;;;;5033623;28;20171;-70
2023/04/30 11:08:33;;;;;;;9.98;8.93;;;20.40;15.00;;;;;;5032470;28;20257;-70
2023/04/30 11:11:00;;;;;;;8.23;7.53;;;20.80;1.00;;;;;;5033779;28;20208;-69
2023/04/30 11:13:26;;;;;;;10.32;9.10;;;21.50;1.00;;;;;;5033801;28;20189;-70
2023/04/30 11:15:52;;;;;;;10.70;9.60;;;21.90;1.00;;;;;;5033353;28;20237;-68
2023/04/30 11:18:18;;;;;;;8.75;7.90;;;22.10;1.00;;;;;;5031743;28;20264;-70
2023/04/30 11:20:53;;;;;;;7.80;6.78;;;21.10;1.00;;;;;;5048798;28;20182;-68
2023/04/30 11:23:23;;;;;;;7.65;6.95;;;19.80;1.00;;;;;;5033707;28;20247;-68
2023/04/30 11:25:52;;;;;;;8.50;7.70;;;19.90;99.90;;;;;;5033525;28;20173;-71
2023/04/30 11:28:20;;;;;;;7.80;7.10;;;20.60;99.90;;;;;;5033399;28;20240;-70
2023/04/30 11:30:56;;;;;;;7.00;6.35;;;21.50;1.00;;;;;;5033235;28;20165;-69
2023/04/30 11:33:25;;;;;;;7.15;6.55;;;21.40;1.00;;;;;;5033335;28;20174;-69
2023/04/30 11:35:52;;;;;;;7.45;6.75;;;21.40;1.00;;;;;;5033046;28;20263;-69
2023/04/30 11:38:23;;;;;;;6.63;5.95;;;21.20;1.00;;;;;;5033173;28;20170;-70
2023/04/30 11:40:50;;;;;;;7.75;6.75;;;21.00;1.00;;;;;;5032249;28;20170;-68
2023/04/30 11:43:29;;;;;;;6.57;5.97;;;20.00;1.00;;;;;;5033076;28;20205;-70
2023/04/30 11:46:11;;;;;;;6.25;5.65;;;19.70;1.00;;;;;;5033058;28;20165;-69
2023/04/30 11:48:39;;;;;;;6.03;5.28;;;19.90;1.00;;;;;;5032629;28;20198;-70
2023/04/30 11:51:13;;;;;;;6.43;5.82;;;20.00;1.00;;;;;;5031071;28;20714;-68
2023/04/30 11:53:38;;;;;;;6.43;5.82;;;19.70;5.60;;;;;;5033268;28;20239;-70
2023/04/30 11:56:05;;;;;;;6.15;5.55;;;19.30;99.90;;;;;;5032537;28;20201;-68
2023/04/30 11:58:36;;;;;;;6.55;5.85;;;19.30;99.90;;;;;;5032598;28;20170;-69
2023/04/30 12:01:02;;;;;;;7.00;6.30;;;19.00;99.90;;;;;;5032525;28;20177;-70
2023/04/30 12:03:28;;;;;;;6.22;5.63;;;19.00;1.00;;;;;;5032488;28;20216;-67
2023/04/30 12:05:54;;;;;;;5.97;5.03;;;19.00;1.00;;;;;;5032735;28;20253;-67
2023/04/30 12:08:19;;;;;;;7.55;6.85;;;18.50;1.00;;;;;;5032673;28;20173;-68
2023/04/30 12:10:45;;;;;;;6.85;6.25;;;18.50;1.00;;;;;;5032550;28;20248;-69
2023/04/30 12:13:15;;;;;;;6.20;5.60;;;18.80;1.00;;;;;;5031646;28;20172;-68
2023/04/30 12:15:41;;;;;;;5.40;4.90;;;18.90;1.00;;;;;;5032553;28;20213;-68
2023/04/30 12:18:12;;;;;;;7.13;6.40;;;19.00;99.90;;;;;;5043381;28;20217;-67
2023/04/30 12:20:39;;;;;;;6.25;5.72;;;18.90;99.90;;;;;;5052739;28;20169;-70
2023/04/30 12:23:05;;;;;;;6.10;5.22;;;19.20;39.50;;;;;;5052439;28;20162;-68
2023/04/30 12:25:39;;;;;;;6.30;5.70;;;19.10;26.90;;;;;;5052699;28;20172;-69
2023/04/30 12:28:05;;;;;;;7.40;6.70;;;18.60;1.00;;;;;;5052512;28;20298;-68
2023/04/30 12:30:31;;;;;;;5.80;5.22;;;18.70;1.00;;;;;;5052011;28;20639;-68
2023/04/30 12:32:59;;;;;;;6.18;5.32;;;19.20;1.00;;;;;;5052655;28;20169;-69
2023/04/30 12:35:27;;;;;;;7.10;6.45;;;19.20;99.90;;;;;;5050866;28;20700;-69
2023/04/30 12:38:01;;;;;;;8.00;5.55;;;19.20;1.00;;;;;;5052386;28;20172;-68
2023/04/30 12:40:27;;;;;;;7.55;6.75;;;19.20;1.00;;;;;;5052226;28;20177;-69